sensor_id;sensor_type;location;lat;lon;timestamp;P1;durP1;ratioP1;P2;durP2;ratioP2
5646;SDS011;2845;48.626;9.362;2023-04-25T00:01:04;1.20;;;0.60;;
5646;SDS011;2845;48.626;9.362;2023-04-25T00:03:38;1.90;;;0.70;;
5646;SDS011;2845;48.626;9.362;2023-04-25T00:06:15;2.05;;;0.65;;
5646;SDS011;2845;48.626;9.362;2023-04-25T00:08:51;1.58;;;0.77;;
5646;SDS011;2845;48.626;9.362;2023-04-25T00:11:25;2.00;;;0.80;;
5646;SDS011;2845;48.626;9.362;2023-04-25T00:14:04;1.23;;;0.63;;
5646;SDS011;2845;48.626;9.362;2023-04-25T00:16:39;1.10;;;0.60;;
5646;SDS011;2845;48.626;9.362;2023-04-25T00:19:13;2.05;;;0.82;;
5646;SDS011;2845;48.626;9.362;2023-04-25T00:21:47;1.60;;;0.90;;
5646;SDS011;2845;48.626;9.362;2023-04-25T00:24:22;2.22;;;0.70;;
5646;SDS011;2845;48.626;9.362;2023-04-25T00:26:56;2.60;;;0.75;;
5646;SDS011;2845;48.626;9.362;2023-04-25T00:29:31;1.55;;;0.68;;
5646;SDS011;2845;48.626;9.362;2023-04-25T00:32:06;1.58;;;0.65;;
5646;SDS011;2845;48.626;9.362;2023-04-25T00:34:40;0.90;;;0.50;;
5646;SDS011;2845;48.626;9.362;2023-04-25T00:37:14;1.75;;;0.95;;
5646;SDS011;2845;48.626;9.362;2023-04-25T00:39:48;3.95;;;0.70;;
5646;SDS011;2845;48.626;9.362;2023-04-25T00:42:22;1.50;;;0.70;;
5646;SDS011;2845;48.626;9.362;2023-04-25T00:44:59;1.73;;;0.82;;
5646;SDS011;2845;48.626;9.362;2023-04-25T00:47:34;2.13;;;0.88;;
5646;SDS011;2845;48.626;9.362;2023-04-25T00:50:09;1.80;;;0.75;;
5646;SDS011;2845;48.626;9.362;2023-04-25T00:52:45;1.58;;;0.63;;
5646;SDS011;2845;48.626;9.362;2023-04-25T00:55:19;2.70;;;0.98;;
5646;SDS011;2845;48.626;9.362;2023-04-25T00:57:53;1.30;;;0.73;;
5646;SDS011;2845;48.626;9.362;2023-04-25T01:00:29;1.42;;;0.75;;
5646;SDS011;2845;48.626;9.362;2023-04-25T01:03:04;2.33;;;0.93;;
5646;SDS011;2845;48.626;9.362;2023-04-25T01:05:38;1.92;;;1.00;;
5646;SDS011;2845;48.626;9.362;2023-04-25T01:08:14;1.95;;;0.85;;
5646;SDS011;2845;48.626;9.362;2023-04-25T01:10:48;1.88;;;0.80;;
5646;SDS011;2845;48.626;9.362;2023-04-25T01:13:22;3.50;;;1.00;;
5646;SDS011;2845;48.626;9.362;2023-04-25T01:15:58;0.90;;;0.60;;
5646;SDS011;2845;48.626;9.362;2023-04-25T01:18:33;1.75;;;0.93;;
5646;SDS011;2845;48.626;9.362;2023-04-25T01:21:09;1.83;;;0.90;;
5646;SDS011;2845;48.626;9.362;2023-04-25T01:23:45;2.28;;;0.98;;
5646;SDS011;2845;48.626;9.362;2023-04-25T01:26:20;1.65;;;0.85;;
5646;SDS011;2845;48.626;9.362;2023-04-25T01:28:56;2.42;;;0.90;;
5646;SDS011;2845;48.626;9.362;2023-04-25T01:31:31;1.60;;;0.85;;
5646;SDS011;2845;48.626;9.362;2023-04-25T01:34:07;1.77;;;0.70;;
5646;SDS011;2845;48.626;9.362;2023-04-25T01:36:42;2.25;;;0.98;;
5646;SDS011;2845;48.626;9.362;2023-04-25T01:39:17;1.58;;;0.80;;
5646;SDS011;2845;48.626;9.362;2023-04-25T01:41:52;2.65;;;1.00;;
5646;SDS011;2845;48.626;9.362;2023-04-25T01:44:28;2.47;;;1.20;;
5646;SDS011;2845;48.626;9.362;2023-04-25T01:47:03;2.03;;;1.00;;
5646;SDS011;2845;48.626;9.362;2023-04-25T01:49:37;1.88;;;0.77;;
5646;SDS011;2845;48.626;9.362;2023-04-25T01:52:13;2.83;;;1.00;;
5646;SDS011;2845;48.626;9.362;2023-04-25T01:54:48;1.98;;;0.90;;
5646;SDS011;2845;48.626;9.362;2023-04-25T01:57:23;1.88;;;0.93;;
5646;SDS011;2845;48.626;9.362;2023-04-25T01:59:58;2.83;;;1.20;;
5646;SDS011;2845;48.626;9.362;2023-04-25T02:02:35;1.98;;;1.00;;
5646;SDS011;2845;48.626;9.362;2023-04-25T02:05:09;2.05;;;1.05;;
5646;SDS011;2845;48.626;9.362;2023-04-25T02:07:45;1.20;;;0.70;;
5646;SDS011;2845;48.626;9.362;2023-04-25T02:10:20;2.50;;;0.80;;
5646;SDS011;2845;48.626;9.362;2023-04-25T02:12:54;1.63;;;0.90;;
5646;SDS011;2845;48.626;9.362;2023-04-25T02:15:28;1.80;;;0.77;;
5646;SDS011;2845;48.626;9.362;2023-04-25T02:18:02;2.42;;;1.00;;
5646;SDS011;2845;48.626;9.362;2023-04-25T02:20:38;1.98;;;0.90;;
5646;SDS011;2845;48.626;9.362;2023-04-25T02:23:14;2.58;;;0.93;;
5646;SDS011;2845;48.626;9.362;2023-04-25T02:25:48;2.00;;;1.00;;
5646;SDS011;2845;48.626;9.362;2023-04-25T02:28:23;2.80;;;1.10;;
5646;SDS011;2845;48.626;9.362;2023-04-25T02:30:57;2.60;;;1.20;;
5646;SDS011;2845;48.626;9.362;2023-04-25T02:33:31;2.08;;;0.98;;
5646;SDS011;2845;48.626;9.362;2023-04-25T02:36:06;3.75;;;1.33;;
5646;SDS011;2845;48.626;9.362;2023-04-25T02:38:42;2.97;;;1.25;;
5646;SDS011;2845;48.626;9.362;2023-04-25T02:41:16;2.67;;;0.95;;
5646;SDS011;2845;48.626;9.362;2023-04-25T02:43:50;2.55;;;1.30;;
5646;SDS011;2845;48.626;9.362;2023-04-25T02:46:25;2.05;;;1.00;;
5646;SDS011;2845;48.626;9.362;2023-04-25T02:49:10;2.85;;;1.00;;
5646;SDS011;2845;48.626;9.362;2023-04-25T02:51:44;2.38;;;0.80;;
5646;SDS011;2845;48.626;9.362;2023-04-25T02:54:20;2.70;;;1.10;;
5646;SDS011;2845;48.626;9.362;2023-04-25T02:56:54;2.08;;;1.10;;
5646;SDS011;2845;48.626;9.362;2023-04-25T02:59:28;3.47;;;1.10;;
5646;SDS011;2845;48.626;9.362;2023-04-25T03:02:02;2.42;;;1.10;;
5646;SDS011;2845;48.626;9.362;2023-04-25T03:04:37;2.50;;;1.10;;
5646;SDS011;2845;48.626;9.362;2023-04-25T03:07:11;2.75;;;1.10;;
5646;SDS011;2845;48.626;9.362;2023-04-25T03:09:46;2.83;;;0.98;;
5646;SDS011;2845;48.626;9.362;2023-04-25T03:12:20;3.47;;;1.38;;
5646;SDS011;2845;48.626;9.362;2023-04-25T03:14:55;2.25;;;0.90;;
5646;SDS011;2845;48.626;9.362;2023-04-25T03:17:29;1.83;;;1.02;;
5646;SDS011;2845;48.626;9.362;2023-04-25T03:20:03;2.90;;;1.02;;
5646;SDS011;2845;48.626;9.362;2023-04-25T03:22:40;4.25;;;1.23;;
5646;SDS011;2845;48.626;9.362;2023-04-25T03:25:16;1.85;;;1.00;;
5646;SDS011;2845;48.626;9.362;2023-04-25T03:27:50;2.17;;;1.02;;
5646;SDS011;2845;48.626;9.362;2023-04-25T03:30:24;3.03;;;1.40;;
5646;SDS011;2845;48.626;9.362;2023-04-25T03:32:59;2.83;;;1.05;;
5646;SDS011;2845;48.626;9.362;2023-04-25T03:35:33;3.65;;;1.42;;
5646;SDS011;2845;48.626;9.362;2023-04-25T03:38:07;2.22;;;1.08;;
5646;SDS011;2845;48.626;9.362;2023-04-25T03:40:42;2.42;;;0.90;;
5646;SDS011;2845;48.626;9.362;2023-04-25T03:43:16;2.80;;;1.45;;
5646;SDS011;2845;48.626;9.362;2023-04-25T03:45:51;2.30;;;1.23;;
5646;SDS011;2845;48.626;9.362;2023-04-25T03:48:25;4.13;;;1.25;;
5646;SDS011;2845;48.626;9.362;2023-04-25T03:50:59;3.13;;;1.02;;
5646;SDS011;2845;48.626;9.362;2023-04-25T03:53:33;2.65;;;1.08;;
5646;SDS011;2845;48.626;9.362;2023-04-25T03:56:09;2.60;;;1.30;;
5646;SDS011;2845;48.626;9.362;2023-04-25T03:58:43;2.60;;;1.30;;
5646;SDS011;2845;48.626;9.362;2023-04-25T04:01:17;2.38;;;0.98;;
5646;SDS011;2845;48.626;9.362;2023-04-25T04:03:52;3.15;;;1.13;;
5646;SDS011;2845;48.626;9.362;2023-04-25T04:06:27;3.50;;;1.27;;
5646;SDS011;2845;48.626;9.362;2023-04-25T04:09:01;2.25;;;1.00;;
5646;SDS011;2845;48.626;9.362;2023-04-25T04:11:36;4.22;;;1.15;;
5646;SDS011;2845;48.626;9.362;2023-04-25T04:14:11;2.38;;;0.95;;
5646;SDS011;2845;48.626;9.362;2023-04-25T04:16:45;3.05;;;1.38;;
5646;SDS011;2845;48.626;9.362;2023-04-25T04:19:20;2.53;;;1.30;;
5646;SDS011;2845;48.626;9.362;2023-04-25T04:21:54;2.60;;;1.00;;
5646;SDS011;2845;48.626;9.362;2023-04-25T04:24:28;3.38;;;1.50;;
5646;SDS011;2845;48.626;9.362;2023-04-25T04:27:03;2.70;;;1.13;;
5646;SDS011;2845;48.626;9.362;2023-04-25T04:29:38;2.08;;;1.02;;
5646;SDS011;2845;48.626;9.362;2023-04-25T04:32:13;3.22;;;1.25;;
5646;SDS011;2845;48.626;9.362;2023-04-25T04:34:48;3.47;;;1.55;;
5646;SDS011;2845;48.626;9.362;2023-04-25T04:37:22;1.52;;;1.10;;
5646;SDS011;2845;48.626;9.362;2023-04-25T04:39:56;2.53;;;1.17;;
5646;SDS011;2845;48.626;9.362;2023-04-25T04:42:32;2.60;;;1.30;;
5646;SDS011;2845;48.626;9.362;2023-04-25T04:45:06;3.95;;;1.85;;
5646;SDS011;2845;48.626;9.362;2023-04-25T04:47:42;1.77;;;1.15;;
5646;SDS011;2845;48.626;9.362;2023-04-25T04:50:17;3.40;;;1.60;;
5646;SDS011;2845;48.626;9.362;2023-04-25T04:52:51;3.17;;;1.10;;
5646;SDS011;2845;48.626;9.362;2023-04-25T04:55:26;4.57;;;2.03;;
5646;SDS011;2845;48.626;9.362;2023-04-25T04:58:02;2.25;;;0.90;;
5646;SDS011;2845;48.626;9.362;2023-04-25T05:00:37;2.67;;;1.17;;
5646;SDS011;2845;48.626;9.362;2023-04-25T05:03:11;4.47;;;1.10;;
5646;SDS011;2845;48.626;9.362;2023-04-25T05:05:45;3.03;;;1.27;;
5646;SDS011;2845;48.626;9.362;2023-04-25T05:08:19;3.65;;;1.10;;
5646;SDS011;2845;48.626;9.362;2023-04-25T05:10:54;1.17;;;0.77;;
5646;SDS011;2845;48.626;9.362;2023-04-25T05:13:29;2.75;;;1.15;;
5646;SDS011;2845;48.626;9.362;2023-04-25T05:16:03;2.47;;;1.10;;
5646;SDS011;2845;48.626;9.362;2023-04-25T05:18:38;3.17;;;1.40;;
5646;SDS011;2845;48.626;9.362;2023-04-25T05:21:12;4.07;;;1.58;;
5646;SDS011;2845;48.626;9.362;2023-04-25T05:23:47;3.00;;;1.20;;
5646;SDS011;2845;48.626;9.362;2023-04-25T05:26:22;4.13;;;1.40;;
5646;SDS011;2845;48.626;9.362;2023-04-25T05:28:57;3.03;;;1.45;;
5646;SDS011;2845;48.626;9.362;2023-04-25T05:31:32;2.35;;;1.30;;
5646;SDS011;2845;48.626;9.362;2023-04-25T05:34:07;2.35;;;1.10;;
5646;SDS011;2845;48.626;9.362;2023-04-25T05:36:41;2.63;;;1.17;;
5646;SDS011;2845;48.626;9.362;2023-04-25T05:39:16;2.15;;;1.10;;
5646;SDS011;2845;48.626;9.362;2023-04-25T05:41:50;2.33;;;0.90;;
5646;SDS011;2845;48.626;9.362;2023-04-25T05:44:26;2.58;;;1.33;;
5646;SDS011;2845;48.626;9.362;2023-04-25T05:47:00;2.65;;;1.20;;
5646;SDS011;2845;48.626;9.362;2023-04-25T05:49:36;3.72;;;1.40;;
5646;SDS011;2845;48.626;9.362;2023-04-25T05:52:10;1.30;;;0.85;;
5646;SDS011;2845;48.626;9.362;2023-04-25T05:54:44;2.22;;;1.08;;
5646;SDS011;2845;48.626;9.362;2023-04-25T05:57:19;4.82;;;1.58;;
5646;SDS011;2845;48.626;9.362;2023-04-25T05:59:56;5.85;;;1.40;;
5646;SDS011;2845;48.626;9.362;2023-04-25T06:02:30;2.53;;;1.13;;
5646;SDS011;2845;48.626;9.362;2023-04-25T06:05:05;3.35;;;1.20;;
5646;SDS011;2845;48.626;9.362;2023-04-25T06:07:40;2.30;;;0.90;;
5646;SDS011;2845;48.626;9.362;2023-04-25T06:10:15;3.05;;;0.95;;
5646;SDS011;2845;48.626;9.362;2023-04-25T06:12:50;1.80;;;0.85;;
5646;SDS011;2845;48.626;9.362;2023-04-25T06:15:26;3.30;;;1.13;;
5646;SDS011;2845;48.626;9.362;2023-04-25T06:18:00;3.65;;;1.45;;
5646;SDS011;2845;48.626;9.362;2023-04-25T06:20:34;4.13;;;1.38;;
5646;SDS011;2845;48.626;9.362;2023-04-25T06:23:09;2.80;;;1.08;;
5646;SDS011;2845;48.626;9.362;2023-04-25T06:25:43;1.70;;;0.77;;
5646;SDS011;2845;48.626;9.362;2023-04-25T06:28:17;2.00;;;1.10;;
5646;SDS011;2845;48.626;9.362;2023-04-25T06:30:55;2.65;;;0.80;;
5646;SDS011;2845;48.626;9.362;2023-04-25T06:33:29;2.45;;;1.02;;
5646;SDS011;2845;48.626;9.362;2023-04-25T06:36:04;3.20;;;1.05;;
5646;SDS011;2845;48.626;9.362;2023-04-25T06:38:38;2.63;;;1.23;;
5646;SDS011;2845;48.626;9.362;2023-04-25T06:41:12;2.58;;;1.05;;
5646;SDS011;2845;48.626;9.362;2023-04-25T06:43:46;1.83;;;0.80;;
5646;SDS011;2845;48.626;9.362;2023-04-25T06:46:22;2.17;;;1.05;;
5646;SDS011;2845;48.626;9.362;2023-04-25T06:48:56;2.95;;;1.10;;
5646;SDS011;2845;48.626;9.362;2023-04-25T06:51:30;2.33;;;1.08;;
5646;SDS011;2845;48.626;9.362;2023-04-25T06:54:04;1.92;;;0.80;;
5646;SDS011;2845;48.626;9.362;2023-04-25T06:56:39;2.20;;;1.00;;
5646;SDS011;2845;48.626;9.362;2023-04-25T06:59:13;2.03;;;0.93;;
5646;SDS011;2845;48.626;9.362;2023-04-25T07:01:49;2.35;;;1.00;;
5646;SDS011;2845;48.626;9.362;2023-04-25T07:04:23;4.00;;;1.90;;
5646;SDS011;2845;48.626;9.362;2023-04-25T07:06:58;2.53;;;0.80;;
5646;SDS011;2845;48.626;9.362;2023-04-25T07:09:33;3.88;;;1.80;;
5646;SDS011;2845;48.626;9.362;2023-04-25T07:12:07;3.10;;;0.73;;
5646;SDS011;2845;48.626;9.362;2023-04-25T07:14:41;2.47;;;0.93;;
5646;SDS011;2845;48.626;9.362;2023-04-25T07:17:17;3.20;;;1.00;;
5646;SDS011;2845;48.626;9.362;2023-04-25T07:19:51;3.08;;;1.17;;
5646;SDS011;2845;48.626;9.362;2023-04-25T07:22:25;1.30;;;0.80;;
5646;SDS011;2845;48.626;9.362;2023-04-25T07:24:59;2.88;;;1.00;;
5646;SDS011;2845;48.626;9.362;2023-04-25T07:27:34;5.28;;;1.20;;
5646;SDS011;2845;48.626;9.362;2023-04-25T07:30:08;2.33;;;1.10;;
5646;SDS011;2845;48.626;9.362;2023-04-25T07:32:44;2.85;;;1.23;;
5646;SDS011;2845;48.626;9.362;2023-04-25T07:35:18;3.92;;;1.38;;
5646;SDS011;2845;48.626;9.362;2023-04-25T07:37:52;2.10;;;0.88;;
5646;SDS011;2845;48.626;9.362;2023-04-25T07:40:27;3.75;;;1.10;;
5646;SDS011;2845;48.626;9.362;2023-04-25T07:43:01;2.55;;;1.15;;
5646;SDS011;2845;48.626;9.362;2023-04-25T07:45:35;3.65;;;1.48;;
5646;SDS011;2845;48.626;9.362;2023-04-25T07:48:11;2.08;;;1.05;;
5646;SDS011;2845;48.626;9.362;2023-04-25T07:50:46;3.65;;;1.02;;
5646;SDS011;2845;48.626;9.362;2023-04-25T07:53:20;3.40;;;1.27;;
5646;SDS011;2845;48.626;9.362;2023-04-25T07:55:55;2.22;;;1.13;;
5646;SDS011;2845;48.626;9.362;2023-04-25T07:58:29;3.30;;;0.85;;
5646;SDS011;2845;48.626;9.362;2023-04-25T08:01:04;2.92;;;1.10;;
5646;SDS011;2845;48.626;9.362;2023-04-25T08:03:39;2.90;;;1.42;;
5646;SDS011;2845;48.626;9.362;2023-04-25T08:06:14;2.22;;;0.95;;
5646;SDS011;2845;48.626;9.362;2023-04-25T08:08:48;3.78;;;1.40;;
5646;SDS011;2845;48.626;9.362;2023-04-25T08:11:23;3.33;;;1.10;;
5646;SDS011;2845;48.626;9.362;2023-04-25T08:13:57;3.90;;;1.13;;
5646;SDS011;2845;48.626;9.362;2023-04-25T08:16:31;4.45;;;1.33;;
5646;SDS011;2845;48.626;9.362;2023-04-25T08:19:07;2.00;;;1.00;;
5646;SDS011;2845;48.626;9.362;2023-04-25T08:21:41;2.33;;;1.15;;
5646;SDS011;2845;48.626;9.362;2023-04-25T08:24:15;2.55;;;1.17;;
5646;SDS011;2845;48.626;9.362;2023-04-25T08:26:49;2.65;;;1.13;;
5646;SDS011;2845;48.626;9.362;2023-04-25T08:29:25;1.85;;;0.98;;
5646;SDS011;2845;48.626;9.362;2023-04-25T08:32:00;3.08;;;1.38;;
5646;SDS011;2845;48.626;9.362;2023-04-25T08:34:36;1.92;;;0.95;;
5646;SDS011;2845;48.626;9.362;2023-04-25T08:37:11;3.70;;;1.33;;
5646;SDS011;2845;48.626;9.362;2023-04-25T08:39:45;2.97;;;1.27;;
5646;SDS011;2845;48.626;9.362;2023-04-25T08:42:20;3.72;;;1.27;;
5646;SDS011;2845;48.626;9.362;2023-04-25T08:44:56;2.38;;;1.05;;
5646;SDS011;2845;48.626;9.362;2023-04-25T08:47:33;3.17;;;1.40;;
5646;SDS011;2845;48.626;9.362;2023-04-25T08:50:10;2.63;;;1.42;;
5646;SDS011;2845;48.626;9.362;2023-04-25T08:52:44;2.42;;;1.20;;
5646;SDS011;2845;48.626;9.362;2023-04-25T08:55:19;2.47;;;1.02;;
5646;SDS011;2845;48.626;9.362;2023-04-25T08:57:55;1.95;;;1.00;;
5646;SDS011;2845;48.626;9.362;2023-04-25T09:00:31;2.55;;;1.13;;
5646;SDS011;2845;48.626;9.362;2023-04-25T09:03:05;3.08;;;0.95;;
5646;SDS011;2845;48.626;9.362;2023-04-25T09:05:44;2.47;;;1.17;;
5646;SDS011;2845;48.626;9.362;2023-04-25T09:08:19;4.95;;;1.58;;
5646;SDS011;2845;48.626;9.362;2023-04-25T09:10:53;3.58;;;1.30;;
5646;SDS011;2845;48.626;9.362;2023-04-25T09:13:27;3.83;;;1.25;;
5646;SDS011;2845;48.626;9.362;2023-04-25T09:16:02;3.22;;;1.58;;
5646;SDS011;2845;48.626;9.362;2023-04-25T09:18:37;3.13;;;1.15;;
5646;SDS011;2845;48.626;9.362;2023-04-25T09:21:22;2.65;;;1.38;;
5646;SDS011;2845;48.626;9.362;2023-04-25T09:23:56;2.50;;;1.27;;
5646;SDS011;2845;48.626;9.362;2023-04-25T09:26:31;2.63;;;1.50;;
5646;SDS011;2845;48.626;9.362;2023-04-25T09:29:06;2.15;;;1.10;;
5646;SDS011;2845;48.626;9.362;2023-04-25T09:31:40;2.25;;;1.10;;
5646;SDS011;2845;48.626;9.362;2023-04-25T09:34:14;2.60;;;1.35;;
5646;SDS011;2845;48.626;9.362;2023-04-25T09:36:50;2.00;;;1.23;;
5646;SDS011;2845;48.626;9.362;2023-04-25T09:39:28;2.85;;;1.35;;
5646;SDS011;2845;48.626;9.362;2023-04-25T09:42:02;4.05;;;1.70;;
5646;SDS011;2845;48.626;9.362;2023-04-25T09:44:37;1.88;;;1.10;;
5646;SDS011;2845;48.626;9.362;2023-04-25T09:47:17;3.07;;;1.57;;
5646;SDS011;2845;48.626;9.362;2023-04-25T09:49:54;2.58;;;1.38;;
5646;SDS011;2845;48.626;9.362;2023-04-25T09:52:29;2.92;;;1.40;;
5646;SDS011;2845;48.626;9.362;2023-04-25T09:55:04;3.70;;;1.85;;
5646;SDS011;2845;48.626;9.362;2023-04-25T09:57:39;2.92;;;1.25;;
5646;SDS011;2845;48.626;9.362;2023-04-25T10:00:15;2.42;;;1.30;;
5646;SDS011;2845;48.626;9.362;2023-04-25T10:02:50;4.65;;;1.52;;
5646;SDS011;2845;48.626;9.362;2023-04-25T10:05:26;3.40;;;1.60;;
5646;SDS011;2845;48.626;9.362;2023-04-25T10:08:05;4.90;;;1.85;;
5646;SDS011;2845;48.626;9.362;2023-04-25T10:10:40;3.88;;;1.90;;
5646;SDS011;2845;48.626;9.362;2023-04-25T10:13:15;4.53;;;1.92;;
5646;SDS011;2845;48.626;9.362;2023-04-25T10:15:50;2.58;;;1.30;;
5646;SDS011;2845;48.626;9.362;2023-04-25T10:18:26;3.70;;;1.52;;
5646;SDS011;2845;48.626;9.362;2023-04-25T10:21:02;2.65;;;1.40;;
5646;SDS011;2845;48.626;9.362;2023-04-25T10:23:39;3.80;;;1.42;;
5646;SDS011;2845;48.626;9.362;2023-04-25T10:26:14;5.28;;;1.48;;
5646;SDS011;2845;48.626;9.362;2023-04-25T10:28:55;2.65;;;1.45;;
5646;SDS011;2845;48.626;9.362;2023-04-25T10:31:31;3.33;;;1.73;;
5646;SDS011;2845;48.626;9.362;2023-04-25T10:34:07;2.88;;;1.40;;
5646;SDS011;2845;48.626;9.362;2023-04-25T10:36:41;3.03;;;1.23;;
5646;SDS011;2845;48.626;9.362;2023-04-25T10:39:22;3.30;;;1.60;;
5646;SDS011;2845;48.626;9.362;2023-04-25T10:41:58;1.95;;;1.15;;
5646;SDS011;2845;48.626;9.362;2023-04-25T10:44:36;3.58;;;1.33;;
5646;SDS011;2845;48.626;9.362;2023-04-25T10:47:11;4.63;;;1.70;;
5646;SDS011;2845;48.626;9.362;2023-04-25T10:49:46;3.60;;;1.40;;
5646;SDS011;2845;48.626;9.362;2023-04-25T10:52:25;2.45;;;1.20;;
5646;SDS011;2845;48.626;9.362;2023-04-25T10:55:02;2.30;;;1.08;;
5646;SDS011;2845;48.626;9.362;2023-04-25T10:57:39;2.55;;;1.40;;
5646;SDS011;2845;48.626;9.362;2023-04-25T11:00:16;2.30;;;1.10;;
5646;SDS011;2845;48.626;9.362;2023-04-25T11:03:02;2.03;;;1.10;;
5646;SDS011;2845;48.626;9.362;2023-04-25T11:05:36;2.60;;;1.17;;
5646;SDS011;2845;48.626;9.362;2023-04-25T11:08:31;1.70;;;0.68;;
5646;SDS011;2845;48.626;9.362;2023-04-25T11:11:20;1.52;;;0.73;;
5646;SDS011;2845;48.626;9.362;2023-04-25T11:13:54;1.45;;;0.45;;
5646;SDS011;2845;48.626;9.362;2023-04-25T11:16:28;1.25;;;0.60;;
5646;SDS011;2845;48.626;9.362;2023-04-25T11:19:03;0.75;;;0.50;;
5646;SDS011;2845;48.626;9.362;2023-04-25T11:21:37;0.95;;;0.38;;
5646;SDS011;2845;48.626;9.362;2023-04-25T11:24:12;0.75;;;0.38;;
5646;SDS011;2845;48.626;9.362;2023-04-25T11:26:48;0.35;;;0.20;;
5646;SDS011;2845;48.626;9.362;2023-04-25T11:29:22;1.73;;;0.20;;
5646;SDS011;2845;48.626;9.362;2023-04-25T11:31:56;0.30;;;0.10;;
5646;SDS011;2845;48.626;9.362;2023-04-25T11:34:32;0.40;;;0.20;;
5646;SDS011;2845;48.626;9.362;2023-04-25T11:37:07;0.82;;;0.22;;
5646;SDS011;2845;48.626;9.362;2023-04-25T11:39:44;0.75;;;0.20;;
5646;SDS011;2845;48.626;9.362;2023-04-25T11:42:20;0.47;;;0.25;;
5646;SDS011;2845;48.626;9.362;2023-04-25T11:44:54;0.28;;;0.10;;
5646;SDS011;2845;48.626;9.362;2023-04-25T11:47:29;0.50;;;0.25;;
5646;SDS011;2845;48.626;9.362;2023-04-25T11:50:05;0.40;;;0.20;;
5646;SDS011;2845;48.626;9.362;2023-04-25T11:52:41;0.75;;;0.20;;
5646;SDS011;2845;48.626;9.362;2023-04-25T11:55:18;0.10;;;0.10;;
5646;SDS011;2845;48.626;9.362;2023-04-25T11:57:55;0.93;;;0.20;;
5646;SDS011;2845;48.626;9.362;2023-04-25T12:00:33;0.65;;;0.20;;
5646;SDS011;2845;48.626;9.362;2023-04-25T12:03:08;0.45;;;0.15;;
5646;SDS011;2845;48.626;9.362;2023-04-25T12:05:43;0.22;;;0.20;;
5646;SDS011;2845;48.626;9.362;2023-04-25T12:08:19;0.40;;;0.20;;
5646;SDS011;2845;48.626;9.362;2023-04-25T12:10:53;1.10;;;0.38;;
5646;SDS011;2845;48.626;9.362;2023-04-25T12:13:29;0.63;;;0.30;;
5646;SDS011;2845;48.626;9.362;2023-04-25T12:16:05;0.68;;;0.25;;
5646;SDS011;2845;48.626;9.362;2023-04-25T12:18:40;0.70;;;0.20;;
5646;SDS011;2845;48.626;9.362;2023-04-25T12:21:14;1.08;;;0.30;;
5646;SDS011;2845;48.626;9.362;2023-04-25T12:23:48;0.52;;;0.20;;
5646;SDS011;2845;48.626;9.362;2023-04-25T12:26:22;0.63;;;0.20;;
5646;SDS011;2845;48.626;9.362;2023-04-25T12:28:59;0.40;;;0.20;;
5646;SDS011;2845;48.626;9.362;2023-04-25T12:31:33;0.47;;;0.22;;
5646;SDS011;2845;48.626;9.362;2023-04-25T12:34:08;0.28;;;0.20;;
5646;SDS011;2845;48.626;9.362;2023-04-25T12:36:42;0.93;;;0.40;;
5646;SDS011;2845;48.626;9.362;2023-04-25T12:39:16;0.30;;;0.20;;
5646;SDS011;2845;48.626;9.362;2023-04-25T12:41:52;1.35;;;0.30;;
5646;SDS011;2845;48.626;9.362;2023-04-25T12:44:28;0.30;;;0.15;;
5646;SDS011;2845;48.626;9.362;2023-04-25T12:47:03;1.25;;;0.60;;
5646;SDS011;2845;48.626;9.362;2023-04-25T12:49:37;1.27;;;0.52;;
5646;SDS011;2845;48.626;9.362;2023-04-25T12:52:12;2.03;;;0.75;;
5646;SDS011;2845;48.626;9.362;2023-04-25T12:54:46;1.48;;;0.73;;
5646;SDS011;2845;48.626;9.362;2023-04-25T12:57:20;1.83;;;0.65;;
5646;SDS011;2845;48.626;9.362;2023-04-25T12:59:55;1.40;;;0.73;;
5646;SDS011;2845;48.626;9.362;2023-04-25T13:02:29;1.95;;;0.95;;
5646;SDS011;2845;48.626;9.362;2023-04-25T13:05:04;2.00;;;0.77;;
5646;SDS011;2845;48.626;9.362;2023-04-25T13:07:39;1.40;;;0.77;;
5646;SDS011;2845;48.626;9.362;2023-04-25T13:10:14;2.35;;;0.73;;
5646;SDS011;2845;48.626;9.362;2023-04-25T13:12:48;0.88;;;0.40;;
5646;SDS011;2845;48.626;9.362;2023-04-25T13:15:24;2.28;;;0.90;;
5646;SDS011;2845;48.626;9.362;2023-04-25T13:17:58;1.67;;;0.60;;
5646;SDS011;2845;48.626;9.362;2023-04-25T13:20:32;0.93;;;0.50;;
5646;SDS011;2845;48.626;9.362;2023-04-25T13:23:06;3.40;;;1.35;;
5646;SDS011;2845;48.626;9.362;2023-04-25T13:25:40;1.23;;;0.70;;
5646;SDS011;2845;48.626;9.362;2023-04-25T13:28:14;1.20;;;0.55;;
5646;SDS011;2845;48.626;9.362;2023-04-25T13:30:50;1.58;;;0.60;;
5646;SDS011;2845;48.626;9.362;2023-04-25T13:33:24;2.58;;;1.10;;
5646;SDS011;2845;48.626;9.362;2023-04-25T13:36:00;1.52;;;0.93;;
5646;SDS011;2845;48.626;9.362;2023-04-25T13:38:35;3.25;;;1.60;;
5646;SDS011;2845;48.626;9.362;2023-04-25T13:41:09;5.20;;;2.33;;
5646;SDS011;2845;48.626;9.362;2023-04-25T13:43:46;3.05;;;1.30;;
5646;SDS011;2845;48.626;9.362;2023-04-25T13:46:22;1.55;;;0.88;;
5646;SDS011;2845;48.626;9.362;2023-04-25T13:49:16;2.33;;;1.20;;
5646;SDS011;2845;48.626;9.362;2023-04-25T13:51:50;1.77;;;1.00;;
5646;SDS011;2845;48.626;9.362;2023-04-25T13:54:25;2.33;;;0.98;;
5646;SDS011;2845;48.626;9.362;2023-04-25T13:56:59;2.53;;;0.85;;
5646;SDS011;2845;48.626;9.362;2023-04-25T13:59:34;3.90;;;1.42;;
5646;SDS011;2845;48.626;9.362;2023-04-25T14:02:09;3.72;;;1.33;;
5646;SDS011;2845;48.626;9.362;2023-04-25T14:04:44;2.15;;;1.20;;
5646;SDS011;2845;48.626;9.362;2023-04-25T14:07:18;2.72;;;1.00;;
5646;SDS011;2845;48.626;9.362;2023-04-25T14:09:53;2.20;;;1.23;;
5646;SDS011;2845;48.626;9.362;2023-04-25T14:12:28;1.98;;;1.13;;
5646;SDS011;2845;48.626;9.362;2023-04-25T14:15:03;2.90;;;1.27;;
5646;SDS011;2845;48.626;9.362;2023-04-25T14:17:39;3.53;;;1.08;;
5646;SDS011;2845;48.626;9.362;2023-04-25T14:20:14;1.80;;;1.00;;
5646;SDS011;2845;48.626;9.362;2023-04-25T14:22:52;1.95;;;1.00;;
5646;SDS011;2845;48.626;9.362;2023-04-25T14:25:28;2.80;;;1.08;;
5646;SDS011;2845;48.626;9.362;2023-04-25T14:28:03;2.67;;;1.10;;
5646;SDS011;2845;48.626;9.362;2023-04-25T14:30:38;3.80;;;1.20;;
5646;SDS011;2845;48.626;9.362;2023-04-25T14:33:14;3.22;;;1.40;;
5646;SDS011;2845;48.626;9.362;2023-04-25T14:35:48;3.17;;;1.27;;
5646;SDS011;2845;48.626;9.362;2023-04-25T14:38:22;2.28;;;1.20;;
5646;SDS011;2845;48.626;9.362;2023-04-25T14:40:57;2.95;;;1.30;;
5646;SDS011;2845;48.626;9.362;2023-04-25T14:43:31;2.72;;;1.13;;
5646;SDS011;2845;48.626;9.362;2023-04-25T14:46:05;4.18;;;1.40;;
5646;SDS011;2845;48.626;9.362;2023-04-25T14:48:41;3.50;;;1.38;;
5646;SDS011;2845;48.626;9.362;2023-04-25T14:51:15;4.32;;;1.42;;
5646;SDS011;2845;48.626;9.362;2023-04-25T14:53:49;2.47;;;1.30;;
5646;SDS011;2845;48.626;9.362;2023-04-25T14:56:24;2.30;;;1.25;;
5646;SDS011;2845;48.626;9.362;2023-04-25T14:58:58;3.45;;;1.40;;
5646;SDS011;2845;48.626;9.362;2023-04-25T15:01:32;3.03;;;1.52;;
5646;SDS011;2845;48.626;9.362;2023-04-25T15:04:08;3.38;;;1.20;;
5646;SDS011;2845;48.626;9.362;2023-04-25T15:06:44;2.50;;;1.48;;
5646;SDS011;2845;48.626;9.362;2023-04-25T15:09:18;2.38;;;1.00;;
5646;SDS011;2845;48.626;9.362;2023-04-25T15:11:53;1.95;;;0.90;;
5646;SDS011;2845;48.626;9.362;2023-04-25T15:14:27;3.35;;;1.20;;
5646;SDS011;2845;48.626;9.362;2023-04-25T15:17:01;2.88;;;1.40;;
5646;SDS011;2845;48.626;9.362;2023-04-25T15:19:36;3.88;;;1.45;;
5646;SDS011;2845;48.626;9.362;2023-04-25T15:22:11;3.40;;;1.20;;
5646;SDS011;2845;48.626;9.362;2023-04-25T15:24:45;3.35;;;1.58;;
5646;SDS011;2845;48.626;9.362;2023-04-25T15:27:19;2.35;;;1.40;;
5646;SDS011;2845;48.626;9.362;2023-04-25T15:29:54;2.92;;;1.52;;
5646;SDS011;2845;48.626;9.362;2023-04-25T15:32:28;3.25;;;1.30;;
5646;SDS011;2845;48.626;9.362;2023-04-25T15:35:04;3.45;;;1.48;;
5646;SDS011;2845;48.626;9.362;2023-04-25T15:37:40;2.67;;;1.35;;
5646;SDS011;2845;48.626;9.362;2023-04-25T15:40:15;2.97;;;1.40;;
5646;SDS011;2845;48.626;9.362;2023-04-25T15:42:50;4.93;;;1.80;;
5646;SDS011;2845;48.626;9.362;2023-04-25T15:45:25;2.72;;;1.55;;
5646;SDS011;2845;48.626;9.362;2023-04-25T15:48:00;3.08;;;1.75;;
5646;SDS011;2845;48.626;9.362;2023-04-25T15:50:36;3.38;;;1.60;;
5646;SDS011;2845;48.626;9.362;2023-04-25T15:53:10;2.40;;;1.40;;
5646;SDS011;2845;48.626;9.362;2023-04-25T15:55:45;2.85;;;1.48;;
5646;SDS011;2845;48.626;9.362;2023-04-25T15:58:19;2.72;;;1.48;;
5646;SDS011;2845;48.626;9.362;2023-04-25T16:00:53;2.95;;;1.65;;
5646;SDS011;2845;48.626;9.362;2023-04-25T16:03:28;4.15;;;1.95;;